sensor_id;sensor_type;location;lat;lon;timestamp;pressure;altitude;pressure_sealevel;temperature;humidity
65227;BME280;51805;49.012;12.104;2023-03-15T00:02:12;97052.19;;;22.10;45.03
65227;BME280;51805;49.012;12.104;2023-03-15T00:04:37;97050.25;;;22.10;45.16
65227;BME280;51805;49.012;12.104;2023-03-15T00:07:02;97058.97;;;22.07;45.10
65227;BME280;51805;49.012;12.104;2023-03-15T00:09:27;97062.19;;;22.09;45.14
65227;BME280;51805;49.012;12.104;2023-03-15T00:11:53;97072.00;;;22.05;45.10
65227;BME280;51805;49.012;12.104;2023-03-15T00:14:18;97075.19;;;22.07;45.22
65227;BME280;51805;49.012;12.104;2023-03-15T00:16:43;97076.63;;;22.05;45.25
65227;BME280;51805;49.012;12.104;2023-03-15T00:19:09;97072.00;;;22.05;45.27
65227;BME280;51805;49.012;12.104;2023-03-15T00:21:34;97077.44;;;22.05;45.01
65227;BME280;51805;49.012;12.104;2023-03-15T00:24:00;97077.44;;;22.05;45.10
65227;BME280;51805;49.012;12.104;2023-03-15T00:26:25;97066.91;;;22.04;45.24
65227;BME280;51805;49.012;12.104;2023-03-15T00:28:50;97076.41;;;22.01;45.31
65227;BME280;51805;49.012;12.104;2023-03-15T00:33:41;97092.94;;;22.00;45.32
65227;BME280;51805;49.012;12.104;2023-03-15T00:36:07;97099.16;;;22.00;45.21
65227;BME280;51805;49.012;12.104;2023-03-15T00:38:33;97108.38;;;21.99;45.35
65227;BME280;51805;49.012;12.104;2023-03-15T00:41:12;97117.28;;;22.00;45.31
65227;BME280;51805;49.012;12.104;2023-03-15T00:43:37;97116.50;;;21.99;45.37
65227;BME280;51805;49.012;12.104;2023-03-15T00:46:03;97117.56;;;21.98;45.27
65227;BME280;51805;49.012;12.104;2023-03-15T00:48:28;97124.09;;;21.97;45.13
65227;BME280;51805;49.012;12.104;2023-03-15T00:51:13;97123.56;;;21.95;45.38
65227;BME280;51805;49.012;12.104;2023-03-15T00:53:39;97119.75;;;21.96;45.24
65227;BME280;51805;49.012;12.104;2023-03-15T00:56:12;97125.16;;;21.96;45.27
65227;BME280;51805;49.012;12.104;2023-03-15T00:58:38;97125.16;;;21.96;45.35
65227;BME280;51805;49.012;12.104;2023-03-15T01:01:06;97128.47;;;21.93;45.40
65227;BME280;51805;49.012;12.104;2023-03-15T01:03:32;97127.09;;;21.96;45.33
65227;BME280;51805;49.012;12.104;2023-03-15T01:05:57;97129.56;;;21.92;45.28
65227;BME280;51805;49.012;12.104;2023-03-15T01:08:22;97129.88;;;21.91;45.26
65227;BME280;51805;49.012;12.104;2023-03-15T01:10:47;97135.28;;;21.91;45.41
65227;BME280;51805;49.012;12.104;2023-03-15T01:13:12;97128.75;;;21.92;45.36
65227;BME280;51805;49.012;12.104;2023-03-15T01:15:37;97127.47;;;21.89;45.40
65227;BME280;51805;49.012;12.104;2023-03-15T01:18:03;97138.28;;;21.89;45.47
65227;BME280;51805;49.012;12.104;2023-03-15T01:20:28;97134.47;;;21.90;45.35
65227;BME280;51805;49.012;12.104;2023-03-15T01:22:53;97138.28;;;21.89;45.47
65227;BME280;51805;49.012;12.104;2023-03-15T01:25:18;97149.09;;;21.89;45.58
65227;BME280;51805;49.012;12.104;2023-03-15T01:27:43;97155.31;;;21.90;45.45
65227;BME280;51805;49.012;12.104;2023-03-15T01:30:08;97149.09;;;21.89;45.22
65227;BME280;51805;49.012;12.104;2023-03-15T01:32:34;97151.28;;;21.87;45.47
65227;BME280;51805;49.012;12.104;2023-03-15T01:34:59;97154.00;;;21.87;45.32
65227;BME280;51805;49.012;12.104;2023-03-15T01:37:24;97152.41;;;21.86;45.34
65227;BME280;51805;49.012;12.104;2023-03-15T01:39:49;97152.41;;;21.86;45.34
65227;BME280;51805;49.012;12.104;2023-03-15T01:42:14;97153.50;;;21.85;45.40
65227;BME280;51805;49.012;12.104;2023-03-15T01:44:47;97153.50;;;21.85;45.36
65227;BME280;51805;49.012;12.104;2023-03-15T01:47:13;97144.06;;;21.83;45.51
65227;BME280;51805;49.012;12.104;2023-03-15T01:49:38;97157.28;;;21.84;45.37
65227;BME280;51805;49.012;12.104;2023-03-15T01:52:12;97151.38;;;21.82;45.50
65227;BME280;51805;49.012;12.104;2023-03-15T01:54:40;97143.56;;;21.81;45.51
65227;BME280;51805;49.012;12.104;2023-03-15T01:57:17;97152.47;;;21.81;45.50
65227;BME280;51805;49.012;12.104;2023-03-15T01:59:48;97155.16;;;21.81;45.41
65227;BME280;51805;49.012;12.104;2023-03-15T02:02:15;97157.38;;;21.79;45.46
65227;BME280;51805;49.012;12.104;2023-03-15T02:04:42;97156.28;;;21.80;45.43
65227;BME280;51805;49.012;12.104;2023-03-15T02:07:10;97158.16;;;21.80;45.48
65227;BME280;51805;49.012;12.104;2023-03-15T02:09:43;97163.88;;;21.78;45.46
65227;BME280;51805;49.012;12.104;2023-03-15T02:12:11;97180.09;;;21.78;45.59
65227;BME280;51805;49.012;12.104;2023-03-15T02:14:36;97189.31;;;21.77;45.67
65227;BME280;51805;49.012;12.104;2023-03-15T02:17:02;97195.81;;;21.76;45.61
65227;BME280;51805;49.012;12.104;2023-03-15T02:22:08;97205.84;;;21.76;45.78
65227;BME280;51805;49.012;12.104;2023-03-15T02:24:51;97214.75;;;21.76;45.63
65227;BME280;51805;49.012;12.104;2023-03-15T02:27:30;97225.84;;;21.75;45.68
65227;BME280;51805;49.012;12.104;2023-03-15T02:29:55;97227.75;;;21.74;45.70
65227;BME280;51805;49.012;12.104;2023-03-15T02:32:21;97223.41;;;21.73;45.47
65227;BME280;51805;49.012;12.104;2023-03-15T02:34:46;97235.31;;;21.72;45.54
65227;BME280;51805;49.012;12.104;2023-03-15T02:37:11;97230.50;;;21.69;45.64
65227;BME280;51805;49.012;12.104;2023-03-15T02:39:36;97232.09;;;21.70;45.55
65227;BME280;51805;49.012;12.104;2023-03-15T02:42:01;97238.63;;;21.69;45.45
65227;BME280;51805;49.012;12.104;2023-03-15T02:46:52;97244.31;;;21.68;45.55
65227;BME280;51805;49.012;12.104;2023-03-15T02:49:20;97255.41;;;21.66;45.63
65227;BME280;51805;49.012;12.104;2023-03-15T02:51:46;97265.13;;;21.67;45.71
65227;BME280;51805;49.012;12.104;2023-03-15T02:54:12;97270.53;;;21.67;45.55
65227;BME280;51805;49.012;12.104;2023-03-15T02:56:37;97276.25;;;21.66;45.51
65227;BME280;51805;49.012;12.104;2023-03-15T02:59:02;97291.69;;;21.65;45.64
65227;BME280;51805;49.012;12.104;2023-03-15T03:01:27;97285.75;;;21.63;45.82
65227;BME280;51805;49.012;12.104;2023-03-15T03:03:52;97294.69;;;21.64;45.73
65227;BME280;51805;49.012;12.104;2023-03-15T03:06:17;97290.34;;;21.63;45.67
65227;BME280;51805;49.012;12.104;2023-03-15T03:08:43;97304.69;;;21.63;45.63
65227;BME280;51805;49.012;12.104;2023-03-15T03:11:08;97305.78;;;21.62;45.69
65227;BME280;51805;49.012;12.104;2023-03-15T03:13:33;97306.84;;;21.61;45.62
65227;BME280;51805;49.012;12.104;2023-03-15T03:15:59;97313.38;;;21.60;45.76
65227;BME280;51805;49.012;12.104;2023-03-15T03:18:24;97325.78;;;21.61;45.71
65227;BME280;51805;49.012;12.104;2023-03-15T03:20:49;97327.16;;;21.59;45.79
65227;BME280;51805;49.012;12.104;2023-03-15T03:23:15;97336.59;;;21.61;45.54
65227;BME280;51805;49.012;12.104;2023-03-15T03:25:40;97346.91;;;21.59;45.64
65227;BME280;51805;49.012;12.104;2023-03-15T03:28:05;97351.78;;;21.57;45.73
65227;BME280;51805;49.012;12.104;2023-03-15T03:30:30;97367.19;;;21.57;45.79
65227;BME280;51805;49.012;12.104;2023-03-15T03:32:55;97373.44;;;21.57;45.61
65227;BME280;51805;49.012;12.104;2023-03-15T03:35:20;97377.19;;;21.56;45.76
65227;BME280;51805;49.012;12.104;2023-03-15T03:37:45;97386.41;;;21.55;45.53
65227;BME280;51805;49.012;12.104;2023-03-15T03:40:11;97390.22;;;21.54;45.86
65227;BME280;51805;49.012;12.104;2023-03-15T03:42:36;97404.81;;;21.53;45.80
65227;BME280;51805;49.012;12.104;2023-03-15T03:45:01;97404.03;;;21.53;45.71
65227;BME280;51805;49.012;12.104;2023-03-15T03:47:26;97407.50;;;21.53;45.80
65227;BME280;51805;49.012;12.104;2023-03-15T03:49:51;97417.00;;;21.51;45.79
65227;BME280;51805;49.012;12.104;2023-03-15T03:52:16;97417.81;;;21.51;45.76
65227;BME280;51805;49.012;12.104;2023-03-15T03:54:42;97421.59;;;21.50;45.73
65227;BME280;51805;49.012;12.104;2023-03-15T03:57:07;97430.53;;;21.51;45.78
65227;BME280;51805;49.012;12.104;2023-03-15T03:59:32;97437.81;;;21.50;45.69
65227;BME280;51805;49.012;12.104;2023-03-15T04:01:57;97440.53;;;21.50;45.92
65227;BME280;51805;49.012;12.104;2023-03-15T04:04:22;97444.34;;;21.49;45.69
65227;BME280;51805;49.012;12.104;2023-03-15T04:06:48;97449.75;;;21.49;45.88
65227;BME280;51805;49.012;12.104;2023-03-15T04:09:13;97451.13;;;21.47;45.83
65227;BME280;51805;49.012;12.104;2023-03-15T04:11:39;97446.78;;;21.45;45.96
65227;BME280;51805;49.012;12.104;2023-03-15T04:14:05;97444.91;;;21.46;45.94
65227;BME280;51805;49.012;12.104;2023-03-15T04:16:30;97450.84;;;21.48;45.82
65227;BME280;51805;49.012;12.104;2023-03-15T04:18:55;97450.31;;;21.46;45.88
65227;BME280;51805;49.012;12.104;2023-03-15T04:21:20;97463.81;;;21.46;46.00
65227;BME280;51805;49.012;12.104;2023-03-15T04:23:45;97463.81;;;21.46;45.77
65227;BME280;51805;49.012;12.104;2023-03-15T04:26:10;97459.53;;;21.45;45.90
65227;BME280;51805;49.012;12.104;2023-03-15T04:28:35;97470.63;;;21.43;45.73
65227;BME280;51805;49.012;12.104;2023-03-15T04:31:00;97476.03;;;21.43;45.93
65227;BME280;51805;49.012;12.104;2023-03-15T04:33:26;97476.81;;;21.44;45.88
65227;BME280;51805;49.012;12.104;2023-03-15T04:35:52;97481.44;;;21.43;45.82
65227;BME280;51805;49.012;12.104;2023-03-15T04:38:17;97490.31;;;21.44;45.83
65227;BME280;51805;49.012;12.104;2023-03-15T04:40:43;97494.41;;;21.41;45.70
65227;BME280;51805;49.012;12.104;2023-03-15T04:43:08;97503.34;;;21.42;45.80
65227;BME280;51805;49.012;12.104;2023-03-15T04:45:33;97505.22;;;21.41;45.72
65227;BME280;51805;49.012;12.104;2023-03-15T04:47:59;97521.44;;;21.41;45.73
65227;BME280;51805;49.012;12.104;2023-03-15T04:50:24;97524.91;;;21.47;45.83
65227;BME280;51805;49.012;12.104;2023-03-15T04:52:50;97530.09;;;21.43;45.93
65227;BME280;51805;49.012;12.104;2023-03-15T04:55:15;97537.38;;;21.43;45.91
65227;BME280;51805;49.012;12.104;2023-03-15T04:57:40;97539.56;;;21.41;45.81
65227;BME280;51805;49.012;12.104;2023-03-15T05:00:06;97540.66;;;21.40;45.90
65227;BME280;51805;49.012;12.104;2023-03-15T05:02:32;97548.47;;;21.41;45.80
65227;BME280;51805;49.012;12.104;2023-03-15T05:04:57;97558.47;;;21.41;45.84
65227;BME280;51805;49.012;12.104;2023-03-15T05:07:22;97561.47;;;21.39;46.07
65227;BME280;51805;49.012;12.104;2023-03-15T05:09:47;97567.16;;;21.38;45.89
65227;BME280;51805;49.012;12.104;2023-03-15T05:12:13;97576.91;;;21.39;45.91
65227;BME280;51805;49.012;12.104;2023-03-15T05:14:38;97575.25;;;21.38;45.86
65227;BME280;51805;49.012;12.104;2023-03-15T05:17:03;97579.88;;;21.37;45.86
65227;BME280;51805;49.012;12.104;2023-03-15T05:19:28;97587.44;;;21.35;46.01
65227;BME280;51805;49.012;12.104;2023-03-15T05:21:54;97595.28;;;21.37;45.92
65227;BME280;51805;49.012;12.104;2023-03-15T05:24:20;97604.22;;;21.37;46.00
65227;BME280;51805;49.012;12.104;2023-03-15T05:26:45;97604.47;;;21.36;45.93
65227;BME280;51805;49.012;12.104;2023-03-15T05:29:10;97608.78;;;21.37;45.96
65227;BME280;51805;49.012;12.104;2023-03-15T05:31:35;97616.91;;;21.37;45.97
65227;BME280;51805;49.012;12.104;2023-03-15T05:34:00;97621.22;;;21.38;45.97
65227;BME280;51805;49.012;12.104;2023-03-15T05:36:25;97623.91;;;21.38;45.88
65227;BME280;51805;49.012;12.104;2023-03-15T05:38:50;97633.13;;;21.37;45.79
65227;BME280;51805;49.012;12.104;2023-03-15T05:41:16;97632.84;;;21.38;45.85
65227;BME280;51805;49.012;12.104;2023-03-15T05:43:41;97638.78;;;21.40;45.79
65227;BME280;51805;49.012;12.104;2023-03-15T05:46:06;97638.78;;;21.40;45.80
65227;BME280;51805;49.012;12.104;2023-03-15T05:48:31;97647.69;;;21.41;45.89
65227;BME280;51805;49.012;12.104;2023-03-15T05:50:56;97650.38;;;21.41;45.84
65227;BME280;51805;49.012;12.104;2023-03-15T05:53:21;97648.50;;;21.41;45.82
65227;BME280;51805;49.012;12.104;2023-03-15T05:55:46;97655.22;;;21.44;45.67
65227;BME280;51805;49.012;12.104;2023-03-15T05:58:11;97652.53;;;21.44;45.78
65227;BME280;51805;49.012;12.104;2023-03-15T06:00:37;97661.19;;;21.46;45.77
65227;BME280;51805;49.012;12.104;2023-03-15T06:03:02;97663.88;;;21.46;45.69
65227;BME280;51805;49.012;12.104;2023-03-15T06:05:27;97668.19;;;21.47;45.68
65227;BME280;51805;49.012;12.104;2023-03-15T06:07:52;97670.91;;;21.47;45.68
65227;BME280;51805;49.012;12.104;2023-03-15T06:10:17;97680.38;;;21.50;45.59
65227;BME280;51805;49.012;12.104;2023-03-15T06:12:42;97684.41;;;21.52;45.43
65227;BME280;51805;49.012;12.104;2023-03-15T06:15:08;97684.41;;;21.52;45.68
65227;BME280;51805;49.012;12.104;2023-03-15T06:17:33;97690.63;;;21.53;45.60
65227;BME280;51805;49.012;12.104;2023-03-15T06:19:58;97693.03;;;21.54;45.59
65227;BME280;51805;49.012;12.104;2023-03-15T06:22:23;97699.78;;;21.57;45.58
65227;BME280;51805;49.012;12.104;2023-03-15T06:24:48;97702.19;;;21.58;45.39
65227;BME280;51805;49.012;12.104;2023-03-15T06:27:13;97710.56;;;21.62;45.35
65227;BME280;51805;49.012;12.104;2023-03-15T06:29:39;97710.56;;;21.62;45.48
65227;BME280;51805;49.012;12.104;2023-03-15T06:32:04;97708.41;;;21.64;45.48
65227;BME280;51805;49.012;12.104;2023-03-15T06:34:29;97721.38;;;21.67;45.33
65227;BME280;51805;49.012;12.104;2023-03-15T06:36:54;97723.75;;;21.73;45.04
65227;BME280;51805;49.012;12.104;2023-03-15T06:39:19;97731.09;;;21.78;45.11
65227;BME280;51805;49.012;12.104;2023-03-15T06:41:44;97735.66;;;21.82;45.10
65227;BME280;51805;49.012;12.104;2023-03-15T06:44:09;97730.47;;;21.86;44.81
65227;BME280;51805;49.012;12.104;2023-03-15T06:46:35;97727.19;;;21.89;45.13
65227;BME280;51805;49.012;12.104;2023-03-15T06:49:00;97739.09;;;21.93;45.62
65227;BME280;51805;49.012;12.104;2023-03-15T06:51:25;97732.56;;;21.99;47.06
65227;BME280;51805;49.012;12.104;2023-03-15T06:53:50;97739.84;;;22.03;46.39
65227;BME280;51805;49.012;12.104;2023-03-15T06:56:16;97744.66;;;22.11;46.71
65227;BME280;51805;49.012;12.104;2023-03-15T06:58:41;97753.25;;;22.18;47.04
65227;BME280;51805;49.012;12.104;2023-03-15T07:01:06;97761.88;;;22.25;46.88
65227;BME280;51805;49.012;12.104;2023-03-15T07:03:31;97755.09;;;22.23;47.28
65227;BME280;51805;49.012;12.104;2023-03-15T07:05:56;97758.19;;;22.11;47.06
65227;BME280;51805;49.012;12.104;2023-03-15T07:08:22;97763.59;;;22.11;47.06
65227;BME280;51805;49.012;12.104;2023-03-15T07:10:48;97767.91;;;22.12;46.99
65227;BME280;51805;49.012;12.104;2023-03-15T07:13:13;97769.00;;;22.11;46.85
65227;BME280;51805;49.012;12.104;2023-03-15T07:15:38;97769.00;;;22.11;46.79
65227;BME280;51805;49.012;12.104;2023-03-15T07:18:04;97747.97;;;21.98;46.50
65227;BME280;51805;49.012;12.104;2023-03-15T07:20:29;97778.75;;;22.12;46.45
65227;BME280;51805;49.012;12.104;2023-03-15T07:22:54;97776.28;;;22.16;46.37
65227;BME280;51805;49.012;12.104;2023-03-15T07:25:19;97782.50;;;22.16;46.26
65227;BME280;51805;49.012;12.104;2023-03-15T07:27:44;97784.66;;;22.19;46.29
65227;BME280;51805;49.012;12.104;2023-03-15T07:30:10;97781.38;;;22.22;46.02
65227;BME280;51805;49.012;12.104;2023-03-15T07:32:35;97784.03;;;22.27;46.01
65227;BME280;51805;49.012;12.104;2023-03-15T07:35:00;97787.25;;;22.34;45.69
65227;BME280;51805;49.012;12.104;2023-03-15T07:37:26;97788.84;;;22.40;45.64
65227;BME280;51805;49.012;12.104;2023-03-15T07:39:51;97784.44;;;22.44;45.52
65227;BME280;51805;49.012;12.104;2023-03-15T07:42:17;97786.09;;;22.45;45.53
65227;BME280;51805;49.012;12.104;2023-03-15T07:44:42;97788.00;;;22.40;45.52
65227;BME280;51805;49.012;12.104;2023-03-15T07:47:07;97789.66;;;22.41;45.57
65227;BME280;51805;49.012;12.104;2023-03-15T07:49:32;97790.16;;;22.43;45.52
65227;BME280;51805;49.012;12.104;2023-03-15T07:51:57;97795.84;;;22.41;45.65
65227;BME280;51805;49.012;12.104;2023-03-15T07:54:22;97802.09;;;22.42;45.71
65227;BME280;51805;49.012;12.104;2023-03-15T07:56:47;97803.47;;;22.39;45.53
65227;BME280;51805;49.012;12.104;2023-03-15T07:59:12;97822.13;;;22.41;45.69
65227;BME280;51805;49.012;12.104;2023-03-15T08:01:38;97814.81;;;22.41;45.49
65227;BME280;51805;49.012;12.104;2023-03-15T08:04:03;97811.25;;;22.46;45.43
65227;BME280;51805;49.012;12.104;2023-03-15T08:06:28;97818.31;;;22.47;45.48
65227;BME280;51805;49.012;12.104;2023-03-15T08:08:53;97816.09;;;22.49;45.27
65227;BME280;51805;49.012;12.104;2023-03-15T08:11:18;97812.59;;;22.48;45.44
65227;BME280;51805;49.012;12.104;2023-03-15T08:13:43;97819.09;;;22.47;45.38
65227;BME280;51805;49.012;12.104;2023-03-15T08:16:08;97821.81;;;22.47;45.58
65227;BME280;51805;49.012;12.104;2023-03-15T08:18:34;97825.88;;;22.50;45.31
65227;BME280;51805;49.012;12.104;2023-03-15T08:20:59;97819.38;;;22.51;45.38
65227;BME280;51805;49.012;12.104;2023-03-15T08:23:24;97820.97;;;22.52;45.20
65227;BME280;51805;49.012;12.104;2023-03-15T08:25:49;97815.28;;;22.53;45.30
65227;BME280;51805;49.012;12.104;2023-03-15T08:28:14;97815.81;;;22.55;45.21
65227;BME280;51805;49.012;12.104;2023-03-15T08:30:40;97822.84;;;22.56;45.34
65227;BME280;51805;49.012;12.104;2023-03-15T08:33:05;97818.53;;;22.55;45.34
65227;BME280;51805;49.012;12.104;2023-03-15T08:35:31;97819.63;;;22.54;45.37
65227;BME280;51805;49.012;12.104;2023-03-15T08:37:56;97824.75;;;22.56;45.23
65227;BME280;51805;49.012;12.104;2023-03-15T08:40:26;97822.84;;;22.56;45.29
65227;BME280;51805;49.012;12.104;2023-03-15T08:42:51;97817.97;;;22.58;45.20
65227;BME280;51805;49.012;12.104;2023-03-15T08:45:17;97823.38;;;22.58;45.21
65227;BME280;51805;49.012;12.104;2023-03-15T08:47:42;97823.38;;;22.58;45.27
65227;BME280;51805;49.012;12.104;2023-03-15T08:50:08;97819.56;;;22.59;45.20
65227;BME280;51805;49.012;12.104;2023-03-15T08:52:34;97816.59;;;22.61;45.06
65227;BME280;51805;49.012;12.104;2023-03-15T08:54:59;97819.03;;;22.62;45.17
65227;BME280;51805;49.012;12.104;2023-03-15T08:57:24;97820.63;;;22.63;45.09
65227;BME280;51805;49.012;12.104;2023-03-15T08:59:53;97827.94;;;22.63;45.02
65227;BME280;51805;49.012;12.104;2023-03-15T09:02:18;97832.28;;;22.64;45.05
65227;BME280;51805;49.012;12.104;2023-03-15T09:04:43;97826.34;;;22.62;45.09
65227;BME280;51805;49.012;12.104;2023-03-15T09:07:08;97830.94;;;22.61;45.11
65227;BME280;51805;49.012;12.104;2023-03-15T09:09:33;97827.44;;;22.61;45.18
65227;BME280;51805;49.012;12.104;2023-03-15T09:11:59;97830.66;;;22.63;45.08
65227;BME280;51805;49.012;12.104;2023-03-15T09:14:24;97837.13;;;22.67;44.97
65227;BME280;51805;49.012;12.104;2023-03-15T09:16:49;97836.84;;;22.68;44.88
65227;BME280;51805;49.012;12.104;2023-03-15T09:19:14;97835.75;;;22.69;44.85
65227;BME280;51805;49.012;12.104;2023-03-15T09:21:39;97841.72;;;22.71;44.88
65227;BME280;51805;49.012;12.104;2023-03-15T09:24:04;97839.22;;;22.75;44.82
65227;BME280;51805;49.012;12.104;2023-03-15T09:26:29;97844.06;;;22.78;44.74
65227;BME280;51805;49.012;12.104;2023-03-15T09:28:55;97843.78;;;22.79;44.77
65227;BME280;51805;49.012;12.104;2023-03-15T09:31:20;97845.72;;;22.79;44.76
65227;BME280;51805;49.012;12.104;2023-03-15T09:33:45;97848.69;;;22.77;44.85
65227;BME280;51805;49.012;12.104;2023-03-15T09:36:10;97850.88;;;22.75;44.76
65227;BME280;51805;49.012;12.104;2023-03-15T09:38:35;97853.06;;;22.73;44.78
65227;BME280;51805;49.012;12.104;2023-03-15T09:41:00;97856.28;;;22.75;44.88
65227;BME280;51805;49.012;12.104;2023-03-15T09:43:40;97859.53;;;22.77;44.79
65227;BME280;51805;49.012;12.104;2023-03-15T09:46:22;97857.34;;;22.79;44.62
65227;BME280;51805;49.012;12.104;2023-03-15T09:51:58;97872.53;;;22.80;44.63
65227;BME280;51805;49.012;12.104;2023-03-15T09:54:26;97866.00;;;22.81;44.65
65227;BME280;51805;49.012;12.104;2023-03-15T09:56:57;97879.25;;;22.83;44.73
65227;BME280;51805;49.012;12.104;2023-03-15T09:59:25;97873.56;;;22.84;44.49
65227;BME280;51805;49.012;12.104;2023-03-15T10:01:52;97865.44;;;22.84;44.54
65227;BME280;51805;49.012;12.104;2023-03-15T10:04:29;97871.38;;;22.86;44.55
65227;BME280;51805;49.012;12.104;2023-03-15T10:06:58;97868.13;;;22.84;44.52
65227;BME280;51805;49.012;12.104;2023-03-15T10:09:25;97869.78;;;22.85;44.61
65227;BME280;51805;49.012;12.104;2023-03-15T10:12:00;97873.28;;;22.86;44.57
65227;BME280;51805;49.012;12.104;2023-03-15T10:17:28;97873.00;;;22.87;44.43
65227;BME280;51805;49.012;12.104;2023-03-15T10:19:50;97882.22;;;22.86;44.50
65227;BME280;51805;49.012;12.104;2023-03-15T10:27:42;97883.50;;;22.94;44.25
65227;BME280;51805;49.012;12.104;2023-03-15T10:30:19;97888.66;;;22.95;44.20
65227;BME280;51805;49.012;12.104;2023-03-15T10:32:46;97876.66;;;23.01;44.18
65227;BME280;51805;49.012;12.104;2023-03-15T10:35:14;97888.63;;;23.00;44.17
65227;BME280;51805;49.012;12.104;2023-03-15T10:37:40;97878.38;;;22.92;44.30
65227;BME280;51805;49.012;12.104;2023-03-15T10:40:05;97888.41;;;22.92;44.31
65227;BME280;51805;49.012;12.104;2023-03-15T10:42:31;97881.38;;;22.91;44.29
65227;BME280;51805;49.012;12.104;2023-03-15T10:44:57;97878.38;;;22.92;44.14
65227;BME280;51805;49.012;12.104;2023-03-15T10:47:23;97870.78;;;22.94;44.01
65227;BME280;51805;49.012;12.104;2023-03-15T10:49:49;97878.09;;;22.94;44.20
65227;BME280;51805;49.012;12.104;2023-03-15T10:52:25;97868.34;;;22.93;44.16
65227;BME280;51805;49.012;12.104;2023-03-15T10:54:50;97874.28;;;22.95;44.08
65227;BME280;51805;49.012;12.104;2023-03-15T10:57:16;97867.53;;;22.92;44.07
65227;BME280;51805;49.012;12.104;2023-03-15T11:00:06;97870.72;;;22.99;43.99
65227;BME280;51805;49.012;12.104;2023-03-15T11:02:28;97874.00;;;22.96;44.02
65227;BME280;51805;49.012;12.104;2023-03-15T11:05:02;97861.56;;;22.95;44.02
65227;BME280;51805;49.012;12.104;2023-03-15T11:07:27;97865.59;;;22.98;43.90
65227;BME280;51805;49.012;12.104;2023-03-15T11:09:54;97867.47;;;23.02;43.85
65227;BME280;51805;49.012;12.104;2023-03-15T11:12:23;97849.00;;;23.04;43.86
65227;BME280;51805;49.012;12.104;2023-03-15T11:14:49;97853.06;;;23.07;43.65
65227;BME280;51805;49.012;12.104;2023-03-15T11:17:16;97850.63;;;23.06;43.72
65227;BME280;51805;49.012;12.104;2023-03-15T11:19:44;97838.13;;;23.10;43.81
65227;BME280;51805;49.012;12.104;2023-03-15T11:22:11;97836.44;;;23.14;43.48
65227;BME280;51805;49.012;12.104;2023-03-15T11:24:37;97836.44;;;23.14;43.46
65227;BME280;51805;49.012;12.104;2023-03-15T11:27:05;97833.97;;;23.17;43.38
65227;BME280;51805;49.012;12.104;2023-03-15T11:29:34;97821.44;;;23.21;43.44
65227;BME280;51805;49.012;12.104;2023-03-15T11:32:02;97832.03;;;23.23;43.32
65227;BME280;51805;49.012;12.104;2023-03-15T11:36:57;97827.91;;;23.30;43.35
65227;BME280;51805;49.012;12.104;2023-03-15T11:39:44;97835.22;;;23.30;43.30
65227;BME280;51805;49.012;12.104;2023-03-15T11:42:15;97832.81;;;23.28;43.28
65227;BME280;51805;49.012;12.104;2023-03-15T11:44:47;97824.97;;;23.27;43.34
65227;BME280;51805;49.012;12.104;2023-03-15T11:47:19;97818.72;;;23.26;43.34
65227;BME280;51805;49.012;12.104;2023-03-15T11:52:15;97815.22;;;23.26;43.38
65227;BME280;51805;49.012;12.104;2023-03-15T11:54:41;97820.56;;;23.31;43.27
65227;BME280;51805;49.012;12.104;2023-03-15T11:57:53;97801.09;;;23.29;43.24
65227;BME280;51805;49.012;12.104;2023-03-15T11:59:52;97812.16;;;23.32;43.20
65227;BME280;51805;49.012;12.104;2023-03-15T12:04:46;97806.50;;;23.29;43.29
65227;BME280;51805;49.012;12.104;2023-03-15T12:09:38;97808.13;;;23.30;43.34
65227;BME280;51805;49.012;12.104;2023-03-15T12:12:05;97810.81;;;23.30;43.28
65227;BME280;51805;49.012;12.104;2023-03-15T12:14:31;97795.38;;;23.30;43.28
65227;BME280;51805;49.012;12.104;2023-03-15T12:19:40;97792.94;;;23.29;43.29
65227;BME280;51805;49.012;12.104;2023-03-15T12:22:10;97779.41;;;23.29;43.33
65227;BME280;51805;49.012;12.104;2023-03-15T12:24:37;97791.84;;;23.30;43.33
65227;BME280;51805;49.012;12.104;2023-03-15T12:27:04;97776.97;;;23.27;43.35
65227;BME280;51805;49.012;12.104;2023-03-15T12:29:31;97773.72;;;23.25;43.48
65227;BME280;51805;49.012;12.104;2023-03-15T12:34:29;97776.41;;;23.30;43.33
65227;BME280;51805;49.012;12.104;2023-03-15T12:37:00;97771.25;;;23.29;43.32
65227;BME280;51805;49.012;12.104;2023-03-15T12:39:35;97776.16;;;23.27;43.39
65227;BME280;51805;49.012;12.104;2023-03-15T12:42:00;97766.13;;;23.27;43.42
65227;BME280;51805;49.012;12.104;2023-03-15T12:44:36;97774.56;;;23.26;43.47
65227;BME280;51805;49.012;12.104;2023-03-15T12:47:02;97783.75;;;23.25;43.51
65227;BME280;51805;49.012;12.104;2023-03-15T12:49:30;97766.69;;;23.24;43.43
65227;BME280;51805;49.012;12.104;2023-03-15T12:52:39;97776.97;;;23.27;43.41
65227;BME280;51805;49.012;12.104;2023-03-15T12:57:10;97782.94;;;23.24;43.58
65227;BME280;51805;49.012;12.104;2023-03-15T13:02:07;97784.84;;;23.24;43.55
65227;BME280;51805;49.012;12.104;2023-03-15T13:04:42;97800.03;;;23.25;43.47
65227;BME280;51805;49.012;12.104;2023-03-15T13:07:23;97800.03;;;23.25;43.61
65227;BME280;51805;49.012;12.104;2023-03-15T13:09:56;97804.91;;;23.23;43.62
65227;BME280;51805;49.012;12.104;2023-03-15T13:12:44;97799.75;;;23.21;43.59
65227;BME280;51805;49.012;12.104;2023-03-15T13:15:15;97795.69;;;23.24;43.63
65227;BME280;51805;49.012;12.104;2023-03-15T13:17:56;97804.38;;;23.21;43.71
65227;BME280;51805;49.012;12.104;2023-03-15T13:23:18;97807.09;;;23.26;43.47
65227;BME280;51805;49.012;12.104;2023-03-15T13:25:58;97806.00;;;23.22;43.56
65227;BME280;51805;49.012;12.104;2023-03-15T13:28:38;97812.22;;;23.22;43.66
65227;BME280;51805;49.012;12.104;2023-03-15T13:31:11;97816.28;;;23.25;43.54